createdAt,value
2023-05-17T00:01:00.556Z,100179.49
2023-05-17T00:03:27.214Z,100179.23
2023-05-17T00:05:54.079Z,100184.58
2023-05-17T00:08:21.560Z,100184.00
2023-05-17T00:10:48.400Z,100190.04
2023-05-17T00:13:15.343Z,100191.33
2023-05-17T00:15:42.117Z,100186.85
2023-05-17T00:18:08.984Z,100188.14
2023-05-17T00:20:36.262Z,100188.98
2023-05-17T00:23:03.491Z,100190.95
2023-05-17T00:25:30.796Z,100195.89
2023-05-17T00:27:57.943Z,100196.33
2023-05-17T00:30:24.925Z,100197.67
2023-05-17T00:32:52.050Z,100199.16
2023-05-17T00:35:19.337Z,100196.95
2023-05-17T00:37:47.479Z,100196.95
2023-05-17T00:40:15.348Z,100195.66
2023-05-17T00:42:42.605Z,100191.30
2023-05-17T00:45:10.247Z,100191.46
2023-05-17T00:47:37.681Z,100195.81
2023-05-17T00:50:05.932Z,100194.82
2023-05-17T00:52:32.820Z,100194.17
2023-05-17T00:54:59.610Z,100190.21
2023-05-17T00:57:28.608Z,100191.98
2023-05-17T00:59:55.563Z,100190.75
2023-05-17T01:02:24.132Z,100190.77
2023-05-17T01:04:51.581Z,100192.25
2023-05-17T01:07:19.071Z,100195.11
2023-05-17T01:09:47.349Z,100196.71
2023-05-17T01:12:40.194Z,100198.88
2023-05-17T01:15:22.593Z,100197.59
2023-05-17T01:18:08.563Z,100197.39
2023-05-17T01:20:40.802Z,100199.61
2023-05-17T01:23:26.429Z,100203.10
2023-05-17T01:26:13.877Z,100201.60
2023-05-17T01:28:40.792Z,100197.48
2023-05-17T01:31:08.053Z,100198.77
2023-05-17T01:33:37.458Z,100196.91
2023-05-17T01:36:05.633Z,100195.39
2023-05-17T01:38:32.732Z,100197.59
2023-05-17T01:41:21.848Z,100198.66
2023-05-17T01:44:02.506Z,100200.08
2023-05-17T01:46:39.343Z,100199.84
2023-05-17T01:49:10.843Z,100193.63
2023-05-17T01:51:45.873Z,100197.16
2023-05-17T01:54:12.570Z,100197.73
2023-05-17T01:56:43.260Z,100198.85
2023-05-17T01:59:10.871Z,100198.34
2023-05-17T02:01:39.006Z,100195.26
2023-05-17T02:04:06.187Z,100196.02
2023-05-17T02:06:33.109Z,100195.00
2023-05-17T02:09:02.309Z,100197.61
2023-05-17T02:11:29.194Z,100196.02
2023-05-17T02:13:56.155Z,100197.23
2023-05-17T02:16:23.191Z,100199.17
2023-05-17T02:18:50.266Z,100203.96
2023-05-17T02:21:17.980Z,100210.05
2023-05-17T02:23:45.426Z,100211.77
2023-05-17T02:26:12.116Z,100215.45
2023-05-17T02:28:39.232Z,100217.61
2023-05-17T02:31:08.345Z,100216.49
2023-05-17T02:33:35.734Z,100221.88
2023-05-17T02:36:04.430Z,100227.39
2023-05-17T02:38:31.345Z,100232.19
2023-05-17T02:40:58.227Z,100233.93
2023-05-17T02:43:25.169Z,100233.23
2023-05-17T02:45:52.195Z,100236.85
2023-05-17T02:48:19.112Z,100241.58
2023-05-17T02:50:46.204Z,100242.91
2023-05-17T02:53:13.222Z,100241.66
2023-05-17T02:55:40.721Z,100244.96
2023-05-17T02:58:07.719Z,100246.21
2023-05-17T03:00:35.225Z,100248.60
2023-05-17T03:03:02.182Z,100249.55
2023-05-17T03:05:29.983Z,100253.66
2023-05-17T03:07:57.106Z,100250.56
2023-05-17T03:10:24.188Z,100255.38
2023-05-17T03:12:51.621Z,100253.98
2023-05-17T03:15:21.310Z,100261.45
2023-05-17T03:17:48.263Z,100262.64
2023-05-17T03:20:16.970Z,100266.89
2023-05-17T03:22:45.667Z,100264.65
2023-05-17T03:25:12.436Z,100268.98
2023-05-17T03:27:40.329Z,100272.28
2023-05-17T03:30:08.737Z,100280.13
2023-05-17T03:32:39.839Z,100280.20
2023-05-17T03:35:07.926Z,100283.38
2023-05-17T03:37:35.395Z,100283.73
2023-05-17T03:40:02.825Z,100283.01
2023-05-17T03:42:30.049Z,100282.77
2023-05-17T03:44:57.325Z,100281.43
2023-05-17T03:47:24.915Z,100285.23
2023-05-17T03:49:51.840Z,100287.95
2023-05-17T03:52:18.893Z,100291.98
2023-05-17T03:54:48.069Z,100292.87
2023-05-17T03:57:16.275Z,100293.90
2023-05-17T03:59:43.125Z,100297.91
2023-05-17T04:02:10.363Z,100302.83
2023-05-17T04:04:37.863Z,100306.25
2023-05-17T04:07:06.135Z,100306.58
2023-05-17T04:09:34.616Z,100304.16
2023-05-17T04:12:01.768Z,100307.02
2023-05-17T04:14:28.933Z,100312.50
2023-05-17T04:16:56.207Z,100307.51
2023-05-17T04:19:23.063Z,100315.86
2023-05-17T04:21:51.453Z,100317.90
2023-05-17T04:24:19.112Z,100312.16
2023-05-17T04:26:46.437Z,100314.65
2023-05-17T04:29:13.653Z,100314.56
2023-05-17T04:31:40.565Z,100317.73
2023-05-17T04:34:07.825Z,100313.56
2023-05-17T04:36:35.089Z,100317.45
2023-05-17T04:39:03.013Z,100318.98
2023-05-17T04:41:31.414Z,100319.11
2023-05-17T04:43:58.617Z,100318.39
2023-05-17T04:46:30.541Z,100320.37
2023-05-17T04:48:57.637Z,100321.73
2023-05-17T04:51:24.576Z,100324.90
2023-05-17T04:53:52.082Z,100327.92
2023-05-17T04:56:19.053Z,100331.90
2023-05-17T04:58:46.215Z,100333.58
2023-05-17T05:01:13.315Z,100337.80
2023-05-17T05:03:43.037Z,100333.00
2023-05-17T05:06:11.577Z,100340.02
2023-05-17T05:08:38.863Z,100344.96
2023-05-17T05:11:07.342Z,100339.13
2023-05-17T05:13:34.150Z,100337.80
2023-05-17T05:16:01.384Z,100341.39
2023-05-17T05:18:28.756Z,100342.17
2023-05-17T05:20:56.735Z,100346.59
2023-05-17T05:23:24.489Z,100349.61
2023-05-17T05:25:51.768Z,100354.52
2023-05-17T05:28:19.275Z,100352.99
2023-05-17T05:30:46.548Z,100359.91
2023-05-17T05:33:13.847Z,100359.48
2023-05-17T05:35:40.923Z,100357.17
2023-05-17T05:38:07.829Z,100352.43
2023-05-17T05:40:35.715Z,100353.69
2023-05-17T05:43:02.789Z,100356.91
2023-05-17T05:45:29.869Z,100356.65
2023-05-17T05:47:59.984Z,100363.61
2023-05-17T05:50:30.777Z,100360.59
2023-05-17T05:53:17.493Z,100364.38
2023-05-17T05:55:49.941Z,100360.91
2023-05-17T05:58:17.325Z,100359.37
2023-05-17T06:00:44.848Z,100357.27
2023-05-17T06:03:11.959Z,100356.95
2023-05-17T06:05:39.843Z,100354.11
2023-05-17T06:08:07.339Z,100351.26
2023-05-17T06:10:34.869Z,100355.25
2023-05-17T06:13:01.735Z,100353.39
2023-05-17T06:15:30.905Z,100352.20
2023-05-17T06:17:58.534Z,100349.58
2023-05-17T06:20:25.683Z,100355.77
2023-05-17T06:22:53.721Z,100348.27
2023-05-17T06:25:20.536Z,100350.86
2023-05-17T06:27:50.521Z,100349.33
2023-05-17T06:30:17.558Z,100349.34
2023-05-17T06:32:44.521Z,100349.63
2023-05-17T06:35:11.640Z,100348.27
2023-05-17T06:37:38.808Z,100353.06
2023-05-17T06:40:16.047Z,100352.16
2023-05-17T06:42:44.075Z,100350.15
2023-05-17T06:45:11.986Z,100346.14
2023-05-17T06:47:41.596Z,100346.45
2023-05-17T06:50:09.124Z,100354.27
2023-05-17T06:52:36.290Z,100348.30
2023-05-17T06:55:03.493Z,100339.45
2023-05-17T06:57:31.515Z,100346.48
2023-05-17T06:59:58.300Z,100344.75
2023-05-17T07:02:25.110Z,100342.16
2023-05-17T07:04:52.389Z,100341.63
2023-05-17T07:07:19.428Z,100342.48
2023-05-17T07:09:46.370Z,100344.45
2023-05-17T07:12:13.417Z,100352.67
2023-05-17T07:14:40.520Z,100355.33
2023-05-17T07:17:07.424Z,100353.67
2023-05-17T07:19:34.362Z,100345.61
2023-05-17T07:22:01.334Z,100350.14
2023-05-17T07:24:28.558Z,100347.43
2023-05-17T07:26:55.741Z,100350.28
2023-05-17T07:29:22.622Z,100355.95
2023-05-17T07:31:50.675Z,100348.73
2023-05-17T07:34:18.035Z,100343.63
2023-05-17T07:36:45.419Z,100345.48
2023-05-17T07:39:12.753Z,100347.50
2023-05-17T07:41:39.779Z,100348.47
2023-05-17T07:44:06.901Z,100347.71
2023-05-17T07:46:33.838Z,100347.66
2023-05-17T07:49:00.973Z,100341.14
2023-05-17T07:51:28.040Z,100344.14
2023-05-17T07:53:54.987Z,100336.89
2023-05-17T07:56:21.911Z,100340.80
2023-05-17T07:58:48.835Z,100334.73
2023-05-17T08:01:15.787Z,100338.49
2023-05-17T08:03:47.433Z,100344.43
2023-05-17T08:06:17.454Z,100336.64
2023-05-17T08:08:47.806Z,100334.77
2023-05-17T08:11:14.597Z,100331.63
2023-05-17T08:13:41.672Z,100330.63
2023-05-17T08:16:14.220Z,100331.38
2023-05-17T08:18:42.714Z,100342.33
2023-05-17T08:21:10.780Z,100341.30
2023-05-17T08:23:37.666Z,100347.75
2023-05-17T08:26:04.877Z,100345.23
2023-05-17T08:28:34.315Z,100345.73
2023-05-17T08:31:03.500Z,100339.18
2023-05-17T08:33:30.960Z,100337.68
2023-05-17T08:36:00.689Z,100332.98
2023-05-17T08:38:27.528Z,100331.82
2023-05-17T08:40:55.025Z,100342.72
2023-05-17T08:43:25.819Z,100340.91
2023-05-17T08:45:57.185Z,100341.13
2023-05-17T08:48:30.473Z,100342.10
2023-05-17T08:51:00.451Z,100339.05
2023-05-17T08:53:27.496Z,100327.05
2023-05-17T08:56:00.131Z,100329.48
2023-05-17T08:58:34.085Z,100321.63
2023-05-17T09:01:06.634Z,100325.98
2023-05-17T09:03:34.745Z,100326.61
2023-05-17T09:06:02.708Z,100323.89
2023-05-17T09:08:32.486Z,100317.61
2023-05-17T09:10:59.444Z,100314.73
2023-05-17T09:13:27.092Z,100320.95
2023-05-17T09:15:53.935Z,100320.63
2023-05-17T09:18:32.200Z,100321.06
2023-05-17T09:21:06.173Z,100307.11
2023-05-17T09:23:33.399Z,100310.09
2023-05-17T09:26:05.700Z,100311.27
2023-05-17T09:28:52.929Z,100307.40
2023-05-17T09:31:19.742Z,100305.95
2023-05-17T09:33:51.095Z,100298.84
2023-05-17T09:36:22.566Z,100298.23
2023-05-17T09:38:59.109Z,100297.44
2023-05-17T09:41:30.807Z,100293.31
2023-05-17T09:44:01.264Z,100302.66
2023-05-17T09:46:32.687Z,100286.63
2023-05-17T09:49:01.673Z,100297.64
2023-05-17T09:51:54.962Z,100288.67
2023-05-17T09:54:22.430Z,100283.35
2023-05-17T09:56:55.603Z,100285.89
2023-05-17T09:59:22.549Z,100282.02
2023-05-17T10:01:49.881Z,100280.02
2023-05-17T10:04:19.951Z,100282.82
2023-05-17T10:06:51.393Z,100284.45
2023-05-17T10:09:21.666Z,100278.15
2023-05-17T10:11:48.862Z,100276.05
2023-05-17T10:14:26.796Z,100278.73
2023-05-17T10:16:53.747Z,100273.88
2023-05-17T10:19:21.332Z,100277.63
2023-05-17T10:21:50.168Z,100278.42
2023-05-17T10:24:17.263Z,100272.63
2023-05-17T10:26:44.181Z,100272.31
2023-05-17T10:29:11.160Z,100280.77
2023-05-17T10:31:38.030Z,100274.70
2023-05-17T10:34:06.023Z,100268.66
2023-05-17T10:36:33.688Z,100282.55
2023-05-17T10:39:01.372Z,100274.91
2023-05-17T10:41:34.691Z,100268.67
2023-05-17T10:44:03.997Z,100262.48
2023-05-17T10:46:31.870Z,100270.25
2023-05-17T10:48:59.838Z,100264.70
2023-05-17T10:51:33.215Z,100275.93
2023-05-17T10:54:17.907Z,100263.08
2023-05-17T10:56:52.129Z,100261.15
2023-05-17T10:59:24.124Z,100260.55
2023-05-17T11:01:54.746Z,100262.27
2023-05-17T11:04:25.107Z,100259.73
2023-05-17T11:06:54.134Z,100254.48
2023-05-17T11:09:22.551Z,100252.07
2023-05-17T11:12:09.748Z,100239.34
2023-05-17T11:14:46.153Z,100244.67
2023-05-17T11:17:19.432Z,100244.14
2023-05-17T11:19:56.563Z,100239.39
2023-05-17T11:22:27.325Z,100239.80
2023-05-17T11:24:56.767Z,100231.88
2023-05-17T11:27:30.688Z,100227.17
2023-05-17T11:29:59.662Z,100243.44
2023-05-17T11:32:31.464Z,100235.23
2023-05-17T11:35:01.569Z,100229.69
2023-05-17T11:37:29.467Z,100231.00
2023-05-17T11:40:04.756Z,100223.74
2023-05-17T11:42:32.677Z,100218.84
2023-05-17T11:45:02.808Z,100211.99
2023-05-17T11:47:33.398Z,100218.55
2023-05-17T11:50:01.870Z,100224.96
2023-05-17T11:52:29.484Z,100213.75
2023-05-17T11:54:57.476Z,100214.25
2023-05-17T11:57:29.962Z,100202.33
2023-05-17T12:00:00.992Z,100191.29
2023-05-17T12:02:32.092Z,100191.80
2023-05-17T12:04:59.349Z,100197.48
2023-05-17T12:07:26.348Z,100190.16
2023-05-17T12:09:53.155Z,100190.45
2023-05-17T12:12:21.433Z,100186.39
2023-05-17T12:14:48.263Z,100185.02
2023-05-17T12:17:27.792Z,100178.89
2023-05-17T12:19:55.100Z,100176.30
2023-05-17T12:22:22.437Z,100172.84
2023-05-17T12:24:49.424Z,100167.02
2023-05-17T12:27:25.093Z,100172.14
2023-05-17T12:29:52.674Z,100171.84
2023-05-17T12:32:19.622Z,100159.86
2023-05-17T12:34:47.395Z,100169.86
2023-05-17T12:37:14.382Z,100165.63
2023-05-17T12:39:41.131Z,100160.11
2023-05-17T12:42:08.585Z,100164.74
2023-05-17T12:44:37.053Z,100163.77
2023-05-17T12:47:03.852Z,100173.65
2023-05-17T12:49:31.079Z,100170.67
2023-05-17T12:52:02.932Z,100172.60
2023-05-17T12:54:30.003Z,100159.83
2023-05-17T12:56:56.914Z,100157.44
2023-05-17T12:59:28.258Z,100157.55
2023-05-17T13:01:55.988Z,100163.86
2023-05-17T13:04:37.224Z,100155.76
2023-05-17T13:07:04.525Z,100148.65
2023-05-17T13:09:32.871Z,100161.34
2023-05-17T13:12:01.541Z,100153.64
2023-05-17T13:14:45.238Z,100146.29
2023-05-17T13:17:17.085Z,100149.28
2023-05-17T13:19:44.065Z,100156.67
2023-05-17T13:22:11.646Z,100151.98
2023-05-17T13:24:39.348Z,100146.13
2023-05-17T13:27:06.634Z,100140.16
2023-05-17T13:29:39.379Z,100149.45
2023-05-17T13:32:08.469Z,100150.48
2023-05-17T13:34:35.648Z,100144.27
2023-05-17T13:37:02.848Z,100147.42
2023-05-17T13:39:29.753Z,100149.77
2023-05-17T13:41:56.676Z,100153.48
2023-05-17T13:44:23.627Z,100144.90
2023-05-17T13:46:50.660Z,100144.19
2023-05-17T13:49:17.909Z,100144.36
2023-05-17T13:51:45.499Z,100138.14
2023-05-17T13:54:12.346Z,100142.77
2023-05-17T13:56:39.301Z,100146.01
2023-05-17T13:59:06.360Z,100142.71
2023-05-17T14:01:33.302Z,100140.86
2023-05-17T14:04:00.612Z,100133.01
2023-05-17T14:06:27.828Z,100140.20
2023-05-17T14:08:55.353Z,100135.95
2023-05-17T14:11:22.247Z,100134.98
2023-05-17T14:13:49.281Z,100133.89
2023-05-17T14:16:16.443Z,100131.48
2023-05-17T14:18:43.333Z,100130.45
2023-05-17T14:21:11.251Z,100127.34
2023-05-17T14:23:38.541Z,100121.55
2023-05-17T14:26:07.005Z,100123.95
2023-05-17T14:28:37.216Z,100122.77
2023-05-17T14:31:05.919Z,100122.55
2023-05-17T14:33:33.395Z,100121.95
2023-05-17T14:36:00.659Z,100123.26
2023-05-17T14:38:27.575Z,100125.10
2023-05-17T14:40:54.859Z,100129.41
2023-05-17T14:43:22.039Z,100122.69
2023-05-17T14:45:48.938Z,100124.52
2023-05-17T14:48:16.162Z,100116.64
2023-05-17T14:50:43.487Z,100118.57
2023-05-17T14:53:10.420Z,100127.30
2023-05-17T14:55:37.554Z,100121.20
2023-05-17T14:58:04.733Z,100121.16
2023-05-17T15:00:31.739Z,100121.29
2023-05-17T15:02:58.712Z,100124.68
2023-05-17T15:05:25.780Z,100121.27
2023-05-17T15:07:52.936Z,100115.94
2023-05-17T15:10:19.848Z,100116.73
2023-05-17T15:12:47.048Z,100117.83
2023-05-17T15:15:13.993Z,100118.38
2023-05-17T15:17:41.186Z,100118.30
2023-05-17T15:20:10.096Z,100115.57
2023-05-17T15:22:37.256Z,100115.13
2023-05-17T15:25:05.387Z,100118.33
2023-05-17T15:27:32.656Z,100117.90
2023-05-17T15:29:59.691Z,100109.57
2023-05-17T15:32:26.591Z,100108.39
2023-05-17T15:34:53.529Z,100105.79
2023-05-17T15:37:20.355Z,100104.58
2023-05-17T15:39:47.265Z,100106.76
2023-05-17T15:42:14.063Z,100109.23
2023-05-17T15:44:40.888Z,100111.95
2023-05-17T15:47:07.657Z,100113.08
2023-05-17T15:49:35.036Z,100101.23
2023-05-17T15:52:02.434Z,100100.95
2023-05-17T15:54:29.547Z,100114.27
2023-05-17T15:56:56.363Z,100111.52
2023-05-17T15:59:23.167Z,100109.76
2023-05-17T16:01:50.055Z,100107.05
2023-05-17T16:04:17.011Z,100106.77
2023-05-17T16:06:44.344Z,100112.88
2023-05-17T16:09:11.534Z,100106.05
2023-05-17T16:11:38.548Z,100105.84
2023-05-17T16:14:05.493Z,100107.90
2023-05-17T16:16:32.696Z,100107.66
2023-05-17T16:19:00.745Z,100103.33
2023-05-17T16:21:27.826Z,100105.83
2023-05-17T16:23:54.960Z,100108.00
2023-05-17T16:26:21.808Z,100108.19
2023-05-17T16:28:48.598Z,100106.98
2023-05-17T16:31:15.506Z,100110.75
2023-05-17T16:33:42.425Z,100110.55
2023-05-17T16:36:11.760Z,100113.58
2023-05-17T16:38:38.814Z,100112.42
2023-05-17T16:41:05.966Z,100115.38
2023-05-17T16:43:33.229Z,100117.10
2023-05-17T16:46:00.592Z,100120.70
2023-05-17T16:48:28.024Z,100121.17
2023-05-17T16:50:56.030Z,100124.30
2023-05-17T16:53:23.795Z,100123.45
2023-05-17T16:55:50.601Z,100123.84
2023-05-17T16:58:17.522Z,100124.85
2023-05-17T17:00:44.644Z,100119.93
2023-05-17T17:03:11.690Z,100122.48
2023-05-17T17:05:38.645Z,100125.52
2023-05-17T17:08:06.237Z,100126.90
2023-05-17T17:10:35.520Z,100129.64
2023-05-17T17:13:02.974Z,100130.73
2023-05-17T17:15:30.002Z,100129.71
2023-05-17T17:17:57.233Z,100130.40
2023-05-17T17:20:24.547Z,100130.10
2023-05-17T17:22:51.480Z,100132.23
2023-05-17T17:25:18.657Z,100133.70
2023-05-17T17:27:46.420Z,100135.14
2023-05-17T17:30:13.473Z,100136.48
2023-05-17T17:32:41.027Z,100141.08
2023-05-17T17:35:08.787Z,100142.91
2023-05-17T17:37:35.861Z,100145.79
2023-05-17T17:40:03.430Z,100146.81
2023-05-17T17:42:32.130Z,100144.95
2023-05-17T17:44:59.172Z,100144.36
2023-05-17T17:47:26.344Z,100143.19
2023-05-17T17:49:53.577Z,100143.27
2023-05-17T17:52:20.642Z,100144.48
2023-05-17T17:54:47.591Z,100144.70
2023-05-17T17:57:14.954Z,100143.87
2023-05-17T17:59:41.842Z,100146.66
2023-05-17T18:02:08.879Z,100147.00
2023-05-17T18:04:35.721Z,100146.50
2023-05-17T18:07:02.579Z,100149.16
2023-05-17T18:09:29.716Z,100145.16
2023-05-17T18:11:56.578Z,100142.40
2023-05-17T18:14:23.524Z,100144.16
2023-05-17T18:16:50.626Z,100143.79
2023-05-17T18:19:17.755Z,100145.36
2023-05-17T18:21:44.683Z,100144.43
2023-05-17T18:24:12.023Z,100144.52
2023-05-17T18:26:38.930Z,100144.02
2023-05-17T18:29:05.942Z,100142.87
2023-05-17T18:31:32.881Z,100143.23
2023-05-17T18:33:59.833Z,100141.52
2023-05-17T18:36:27.078Z,100145.02
2023-05-17T18:38:58.048Z,100143.30
2023-05-17T18:41:25.588Z,100144.61
2023-05-17T18:43:52.519Z,100144.55
2023-05-17T18:46:19.401Z,100143.79
2023-05-17T18:48:46.196Z,100139.91
2023-05-17T18:51:15.025Z,100143.66
2023-05-17T18:53:41.969Z,100140.08
2023-05-17T18:56:08.965Z,100136.01
2023-05-17T18:58:36.520Z,100138.44
2023-05-17T19:01:03.474Z,100134.95
2023-05-17T19:03:30.925Z,100132.92
2023-05-17T19:05:58.472Z,100134.71
2023-05-17T19:08:25.351Z,100133.55
2023-05-17T19:10:52.158Z,100136.41
2023-05-17T19:13:19.486Z,100131.95
2023-05-17T19:15:46.379Z,100131.23
2023-05-17T19:18:13.623Z,100130.02
2023-05-17T19:20:40.654Z,100128.07
2023-05-17T19:23:12.325Z,100127.92
2023-05-17T19:25:40.246Z,100128.45
2023-05-17T19:28:08.776Z,100127.15
2023-05-17T19:30:37.509Z,100123.57
2023-05-17T19:33:06.837Z,100126.88
2023-05-17T19:35:35.621Z,100125.24
2023-05-17T19:38:02.449Z,100127.33
2023-05-17T19:40:29.713Z,100125.66
2023-05-17T19:42:57.948Z,100122.44
2023-05-17T19:45:24.931Z,100117.67
2023-05-17T19:47:52.948Z,100120.45
2023-05-17T19:50:20.167Z,100123.07
2023-05-17T19:52:47.114Z,100124.15
2023-05-17T19:55:15.276Z,100124.38
2023-05-17T19:57:42.554Z,100126.34
2023-05-17T20:00:10.331Z,100129.02
2023-05-17T20:02:37.882Z,100128.13
2023-05-17T20:05:05.440Z,100129.89
2023-05-17T20:07:32.852Z,100129.56
2023-05-17T20:09:59.939Z,100127.19
2023-05-17T20:12:27.020Z,100128.05
2023-05-17T20:14:54.067Z,100126.10
2023-05-17T20:17:20.936Z,100125.34
2023-05-17T20:19:47.782Z,100120.94
2023-05-17T20:22:14.618Z,100121.86
2023-05-17T20:24:43.506Z,100123.48
2023-05-17T20:27:11.084Z,100125.61
2023-05-17T20:29:38.538Z,100122.38
2023-05-17T20:32:05.669Z,100127.60
2023-05-17T20:34:33.052Z,100129.04
2023-05-17T20:37:00.607Z,100127.35
2023-05-17T20:39:27.683Z,100126.84
2023-05-17T20:41:55.124Z,100125.69
2023-05-17T20:44:23.393Z,100126.13
2023-05-17T20:46:50.732Z,100126.52
2023-05-17T20:49:17.820Z,100127.07
2023-05-17T20:51:44.961Z,100124.48
2023-05-17T20:54:11.854Z,100124.09
2023-05-17T20:56:39.576Z,100126.95
2023-05-17T20:59:06.670Z,100124.52
2023-05-17T21:01:33.697Z,100129.83
2023-05-17T21:04:01.519Z,100129.09
2023-05-17T21:06:32.319Z,100133.39
2023-05-17T21:09:01.603Z,100131.21
2023-05-17T21:11:29.073Z,100132.38
2023-05-17T21:13:57.437Z,100132.25
2023-05-17T21:16:24.257Z,100127.42
2023-05-17T21:18:51.154Z,100126.77
2023-05-17T21:21:18.336Z,100127.84
2023-05-17T21:23:45.369Z,100127.90
2023-05-17T21:26:12.697Z,100124.73
2023-05-17T21:28:39.493Z,100128.20
2023-05-17T21:31:06.502Z,100127.42
2023-05-17T21:33:33.371Z,100124.24
2023-05-17T21:36:00.422Z,100126.66
2023-05-17T21:38:27.479Z,100126.58
2023-05-17T21:40:55.033Z,100125.39
2023-05-17T21:43:22.095Z,100125.98
2023-05-17T21:45:49.343Z,100124.27
2023-05-17T21:48:16.238Z,100123.11
2023-05-17T21:50:43.065Z,100122.95
2023-05-17T21:53:10.004Z,100121.25
2023-05-17T21:55:56.340Z,100118.19
2023-05-17T21:58:26.009Z,100116.27
2023-05-17T22:00:53.480Z,100112.16
2023-05-17T22:03:20.985Z,100110.80
2023-05-17T22:05:48.718Z,100110.39
2023-05-17T22:08:15.450Z,100107.05
2023-05-17T22:10:43.110Z,100107.77
2023-05-17T22:13:11.700Z,100106.46
2023-05-17T22:15:38.507Z,100109.58
2023-05-17T22:18:05.458Z,100109.36
2023-05-17T22:20:32.574Z,100112.23
2023-05-17T22:22:59.820Z,100105.88
2023-05-17T22:25:26.496Z,100103.05
2023-05-17T22:27:53.368Z,100103.05
2023-05-17T22:30:20.196Z,100104.45
2023-05-17T22:32:47.402Z,100103.23
2023-05-17T22:35:14.455Z,100106.88
2023-05-17T22:37:42.021Z,100104.76
2023-05-17T22:40:10.207Z,100104.66
2023-05-17T22:42:37.031Z,100102.87
2023-05-17T22:45:04.444Z,100105.84
2023-05-17T22:47:31.470Z,100104.30
2023-05-17T22:50:00.266Z,100104.48
2023-05-17T22:52:27.418Z,100102.41
2023-05-17T22:54:54.471Z,100103.92
2023-05-17T22:57:21.325Z,100103.81
2023-05-17T22:59:48.200Z,100101.95
2023-05-17T23:02:15.217Z,100099.71
2023-05-17T23:04:45.342Z,100102.16
2023-05-17T23:07:12.243Z,100102.77
2023-05-17T23:09:39.959Z,100103.52
2023-05-17T23:12:08.346Z,100101.72
2023-05-17T23:14:36.124Z,100108.52
2023-05-17T23:17:03.793Z,100107.53
2023-05-17T23:19:32.390Z,100105.85
2023-05-17T23:22:02.477Z,100106.66
2023-05-17T23:24:29.612Z,100105.80
2023-05-17T23:26:57.101Z,100102.70
2023-05-17T23:29:25.592Z,100105.82
2023-05-17T23:31:52.817Z,100104.97
2023-05-17T23:34:20.409Z,100105.13
2023-05-17T23:36:47.264Z,100106.12
2023-05-17T23:39:15.264Z,100106.48
2023-05-17T23:41:42.380Z,100107.61
2023-05-17T23:44:09.446Z,100105.84
2023-05-17T23:46:36.693Z,100105.91
2023-05-17T23:49:03.934Z,100105.85
2023-05-17T23:51:34.081Z,100108.69
2023-05-17T23:54:01.140Z,100107.00
2023-05-17T23:56:27.992Z,100106.79
2023-05-17T23:58:54.910Z,100103.54
